sensor_id;sensor_type;location;lat;lon;timestamp;P1;durP1;ratioP1;P2;durP2;ratioP2
30515;SDS011;17297;54.022;10.760;2023-04-10T00:00:15;17.58;;;11.00;;
30515;SDS011;17297;54.022;10.760;2023-04-10T00:02:51;21.33;;;11.40;;
30515;SDS011;17297;54.022;10.760;2023-04-10T00:05:16;15.60;;;11.38;;
30515;SDS011;17297;54.022;10.760;2023-04-10T00:07:42;20.55;;;11.18;;
30515;SDS011;17297;54.022;10.760;2023-04-10T00:10:08;17.90;;;11.18;;
30515;SDS011;17297;54.022;10.760;2023-04-10T00:12:36;23.20;;;11.77;;
30515;SDS011;17297;54.022;10.760;2023-04-10T00:15:02;18.88;;;12.25;;
30515;SDS011;17297;54.022;10.760;2023-04-10T00:17:28;20.73;;;11.75;;
30515;SDS011;17297;54.022;10.760;2023-04-10T00:19:53;21.35;;;13.73;;
30515;SDS011;17297;54.022;10.760;2023-04-10T00:22:19;22.27;;;13.10;;
30515;SDS011;17297;54.022;10.760;2023-04-10T00:24:57;24.98;;;13.88;;
30515;SDS011;17297;54.022;10.760;2023-04-10T00:27:22;21.85;;;12.30;;
30515;SDS011;17297;54.022;10.760;2023-04-10T00:29:48;19.15;;;12.18;;
30515;SDS011;17297;54.022;10.760;2023-04-10T00:32:25;17.63;;;11.55;;
30515;SDS011;17297;54.022;10.760;2023-04-10T00:34:59;22.30;;;12.50;;
30515;SDS011;17297;54.022;10.760;2023-04-10T00:37:25;24.55;;;12.80;;
30515;SDS011;17297;54.022;10.760;2023-04-10T00:39:51;26.20;;;13.57;;
30515;SDS011;17297;54.022;10.760;2023-04-10T00:42:16;25.60;;;13.75;;
30515;SDS011;17297;54.022;10.760;2023-04-10T00:44:42;23.02;;;13.18;;
30515;SDS011;17297;54.022;10.760;2023-04-10T00:47:11;20.83;;;11.90;;
30515;SDS011;17297;54.022;10.760;2023-04-10T00:49:37;23.58;;;12.10;;
30515;SDS011;17297;54.022;10.760;2023-04-10T00:52:02;22.55;;;13.20;;
30515;SDS011;17297;54.022;10.760;2023-04-10T00:54:28;24.38;;;13.70;;
30515;SDS011;17297;54.022;10.760;2023-04-10T00:56:54;20.73;;;11.95;;
30515;SDS011;17297;54.022;10.760;2023-04-10T00:59:21;18.15;;;11.90;;
30515;SDS011;17297;54.022;10.760;2023-04-10T01:01:46;18.77;;;12.25;;
30515;SDS011;17297;54.022;10.760;2023-04-10T01:04:12;19.90;;;11.52;;
30515;SDS011;17297;54.022;10.760;2023-04-10T01:09:43;18.15;;;11.63;;
30515;SDS011;17297;54.022;10.760;2023-04-10T01:15:23;18.45;;;10.27;;
30515;SDS011;17297;54.022;10.760;2023-04-10T01:18:00;20.27;;;10.85;;
30515;SDS011;17297;54.022;10.760;2023-04-10T01:20:32;17.73;;;10.30;;
30515;SDS011;17297;54.022;10.760;2023-04-10T01:23:19;17.00;;;10.27;;
30515;SDS011;17297;54.022;10.760;2023-04-10T01:26:01;15.32;;;10.45;;
30515;SDS011;17297;54.022;10.760;2023-04-10T01:31:30;19.48;;;10.18;;
30515;SDS011;17297;54.022;10.760;2023-04-10T01:34:04;15.82;;;9.55;;
30515;SDS011;17297;54.022;10.760;2023-04-10T01:36:41;15.27;;;9.80;;
30515;SDS011;17297;54.022;10.760;2023-04-10T01:39:20;15.23;;;10.32;;
30515;SDS011;17297;54.022;10.760;2023-04-10T01:41:49;18.48;;;10.40;;
30515;SDS011;17297;54.022;10.760;2023-04-10T01:44:20;19.58;;;10.88;;
30515;SDS011;17297;54.022;10.760;2023-04-10T01:46:49;18.05;;;10.43;;
30515;SDS011;17297;54.022;10.760;2023-04-10T01:49:16;17.55;;;10.57;;
30515;SDS011;17297;54.022;10.760;2023-04-10T01:51:43;17.00;;;9.93;;
30515;SDS011;17297;54.022;10.760;2023-04-10T01:54:10;15.48;;;9.38;;
30515;SDS011;17297;54.022;10.760;2023-04-10T01:56:36;14.68;;;9.38;;
30515;SDS011;17297;54.022;10.760;2023-04-10T01:59:02;14.43;;;9.43;;
30515;SDS011;17297;54.022;10.760;2023-04-10T02:01:29;18.20;;;10.15;;
30515;SDS011;17297;54.022;10.760;2023-04-10T02:03:56;15.38;;;9.60;;
30515;SDS011;17297;54.022;10.760;2023-04-10T02:06:33;15.40;;;10.02;;
30515;SDS011;17297;54.022;10.760;2023-04-10T02:09:13;16.90;;;11.20;;
30515;SDS011;17297;54.022;10.760;2023-04-10T02:14:15;17.30;;;10.82;;
30515;SDS011;17297;54.022;10.760;2023-04-10T02:16:42;16.00;;;9.55;;
30515;SDS011;17297;54.022;10.760;2023-04-10T02:19:09;16.70;;;9.40;;
30515;SDS011;17297;54.022;10.760;2023-04-10T02:21:37;16.80;;;10.35;;
30515;SDS011;17297;54.022;10.760;2023-04-10T02:24:05;21.02;;;12.10;;
30515;SDS011;17297;54.022;10.760;2023-04-10T02:26:43;13.50;;;10.13;;
30515;SDS011;17297;54.022;10.760;2023-04-10T02:29:12;16.00;;;11.02;;
30515;SDS011;17297;54.022;10.760;2023-04-10T02:31:38;20.30;;;12.70;;
30515;SDS011;17297;54.022;10.760;2023-04-10T02:34:04;18.85;;;11.88;;
30515;SDS011;17297;54.022;10.760;2023-04-10T02:36:30;18.20;;;10.98;;
30515;SDS011;17297;54.022;10.760;2023-04-10T02:38:55;16.83;;;10.75;;
30515;SDS011;17297;54.022;10.760;2023-04-10T02:41:22;20.63;;;10.38;;
30515;SDS011;17297;54.022;10.760;2023-04-10T02:43:51;19.88;;;11.07;;
30515;SDS011;17297;54.022;10.760;2023-04-10T02:46:23;17.50;;;10.70;;
30515;SDS011;17297;54.022;10.760;2023-04-10T02:48:50;22.52;;;12.95;;
30515;SDS011;17297;54.022;10.760;2023-04-10T02:51:17;21.20;;;12.30;;
30515;SDS011;17297;54.022;10.760;2023-04-10T02:53:42;22.63;;;12.10;;
30515;SDS011;17297;54.022;10.760;2023-04-10T02:56:10;18.58;;;11.80;;
30515;SDS011;17297;54.022;10.760;2023-04-10T02:58:36;16.77;;;11.60;;
30515;SDS011;17297;54.022;10.760;2023-04-10T03:01:04;17.05;;;11.30;;
30515;SDS011;17297;54.022;10.760;2023-04-10T03:03:49;17.73;;;10.88;;
30515;SDS011;17297;54.022;10.760;2023-04-10T03:06:23;17.33;;;9.90;;
30515;SDS011;17297;54.022;10.760;2023-04-10T03:08:52;17.83;;;11.52;;
30515;SDS011;17297;54.022;10.760;2023-04-10T03:11:17;13.48;;;10.23;;
30515;SDS011;17297;54.022;10.760;2023-04-10T03:13:43;18.48;;;11.32;;
30515;SDS011;17297;54.022;10.760;2023-04-10T03:16:08;20.33;;;11.35;;
30515;SDS011;17297;54.022;10.760;2023-04-10T03:18:34;16.55;;;11.38;;
30515;SDS011;17297;54.022;10.760;2023-04-10T03:20:59;17.40;;;11.23;;
30515;SDS011;17297;54.022;10.760;2023-04-10T03:23:26;18.92;;;11.60;;
30515;SDS011;17297;54.022;10.760;2023-04-10T03:25:51;16.42;;;10.00;;
30515;SDS011;17297;54.022;10.760;2023-04-10T03:28:23;18.52;;;10.73;;
30515;SDS011;17297;54.022;10.760;2023-04-10T03:30:49;19.10;;;11.95;;
30515;SDS011;17297;54.022;10.760;2023-04-10T03:33:14;17.67;;;11.52;;
30515;SDS011;17297;54.022;10.760;2023-04-10T03:35:40;19.13;;;11.35;;
30515;SDS011;17297;54.022;10.760;2023-04-10T03:38:06;15.80;;;10.55;;
30515;SDS011;17297;54.022;10.760;2023-04-10T03:40:31;18.40;;;11.23;;
30515;SDS011;17297;54.022;10.760;2023-04-10T03:42:59;18.85;;;12.13;;
30515;SDS011;17297;54.022;10.760;2023-04-10T03:45:27;18.33;;;11.57;;
30515;SDS011;17297;54.022;10.760;2023-04-10T03:47:52;16.52;;;10.82;;
30515;SDS011;17297;54.022;10.760;2023-04-10T03:50:18;15.02;;;10.32;;
30515;SDS011;17297;54.022;10.760;2023-04-10T03:52:50;18.05;;;10.57;;
30515;SDS011;17297;54.022;10.760;2023-04-10T03:55:18;15.98;;;9.43;;
30515;SDS011;17297;54.022;10.760;2023-04-10T03:57:47;21.25;;;12.55;;
30515;SDS011;17297;54.022;10.760;2023-04-10T04:00:15;14.63;;;8.95;;
30515;SDS011;17297;54.022;10.760;2023-04-10T04:02:47;16.38;;;10.05;;
30515;SDS011;17297;54.022;10.760;2023-04-10T04:05:25;16.77;;;9.55;;
30515;SDS011;17297;54.022;10.760;2023-04-10T04:08:09;12.20;;;7.70;;
30515;SDS011;17297;54.022;10.760;2023-04-10T04:10:50;16.30;;;8.77;;
30515;SDS011;17297;54.022;10.760;2023-04-10T04:13:36;13.55;;;8.70;;
30515;SDS011;17297;54.022;10.760;2023-04-10T04:16:05;14.90;;;10.07;;
30515;SDS011;17297;54.022;10.760;2023-04-10T04:18:52;16.00;;;9.82;;
30515;SDS011;17297;54.022;10.760;2023-04-10T04:21:39;13.27;;;8.23;;
30515;SDS011;17297;54.022;10.760;2023-04-10T04:24:35;14.57;;;9.20;;
30515;SDS011;17297;54.022;10.760;2023-04-10T04:27:13;14.15;;;8.95;;
30515;SDS011;17297;54.022;10.760;2023-04-10T04:30:02;20.20;;;11.30;;
30515;SDS011;17297;54.022;10.760;2023-04-10T04:32:42;15.57;;;10.02;;
30515;SDS011;17297;54.022;10.760;2023-04-10T04:35:15;16.50;;;10.25;;
30515;SDS011;17297;54.022;10.760;2023-04-10T04:37:50;18.92;;;9.50;;
30515;SDS011;17297;54.022;10.760;2023-04-10T04:40:40;16.67;;;10.75;;
30515;SDS011;17297;54.022;10.760;2023-04-10T04:43:14;15.23;;;8.85;;
30515;SDS011;17297;54.022;10.760;2023-04-10T04:46:02;18.08;;;10.43;;
30515;SDS011;17297;54.022;10.760;2023-04-10T04:48:48;14.48;;;9.55;;
30515;SDS011;17297;54.022;10.760;2023-04-10T04:51:31;18.20;;;10.45;;
30515;SDS011;17297;54.022;10.760;2023-04-10T04:54:05;14.85;;;9.30;;
30515;SDS011;17297;54.022;10.760;2023-04-10T04:57:05;14.63;;;9.30;;
30515;SDS011;17297;54.022;10.760;2023-04-10T04:59:50;14.23;;;9.15;;
30515;SDS011;17297;54.022;10.760;2023-04-10T05:05:14;12.45;;;8.40;;
30515;SDS011;17297;54.022;10.760;2023-04-10T05:07:44;14.15;;;10.05;;
30515;SDS011;17297;54.022;10.760;2023-04-10T05:10:15;13.63;;;9.45;;
30515;SDS011;17297;54.022;10.760;2023-04-10T05:12:57;12.85;;;9.27;;
30515;SDS011;17297;54.022;10.760;2023-04-10T05:15:47;13.50;;;10.13;;
30515;SDS011;17297;54.022;10.760;2023-04-10T05:18:31;15.53;;;9.87;;
30515;SDS011;17297;54.022;10.760;2023-04-10T05:21:08;12.85;;;8.80;;
30515;SDS011;17297;54.022;10.760;2023-04-10T05:23:40;13.40;;;8.52;;
30515;SDS011;17297;54.022;10.760;2023-04-10T05:26:15;12.82;;;8.18;;
30515;SDS011;17297;54.022;10.760;2023-04-10T05:28:49;15.03;;;8.07;;
30515;SDS011;17297;54.022;10.760;2023-04-10T05:31:41;14.27;;;8.80;;
30515;SDS011;17297;54.022;10.760;2023-04-10T05:34:16;12.27;;;8.07;;
30515;SDS011;17297;54.022;10.760;2023-04-10T05:36:59;17.23;;;9.82;;
30515;SDS011;17297;54.022;10.760;2023-04-10T05:40:03;18.85;;;9.98;;
30515;SDS011;17297;54.022;10.760;2023-04-10T05:42:50;16.25;;;11.10;;
30515;SDS011;17297;54.022;10.760;2023-04-10T05:45:27;18.27;;;10.95;;
30515;SDS011;17297;54.022;10.760;2023-04-10T05:48:08;18.08;;;10.55;;
30515;SDS011;17297;54.022;10.760;2023-04-10T05:50:47;17.35;;;9.98;;
30515;SDS011;17297;54.022;10.760;2023-04-10T05:53:31;16.42;;;10.20;;
30515;SDS011;17297;54.022;10.760;2023-04-10T05:56:24;17.55;;;11.85;;
30515;SDS011;17297;54.022;10.760;2023-04-10T05:59:15;15.98;;;9.73;;
30515;SDS011;17297;54.022;10.760;2023-04-10T06:01:55;15.50;;;10.23;;
30515;SDS011;17297;54.022;10.760;2023-04-10T06:04:22;15.27;;;9.27;;
30515;SDS011;17297;54.022;10.760;2023-04-10T06:06:51;15.50;;;10.38;;
30515;SDS011;17297;54.022;10.760;2023-04-10T06:09:16;15.55;;;10.00;;
30515;SDS011;17297;54.022;10.760;2023-04-10T06:11:41;16.42;;;10.25;;
30515;SDS011;17297;54.022;10.760;2023-04-10T06:14:07;17.65;;;11.48;;
30515;SDS011;17297;54.022;10.760;2023-04-10T06:16:38;18.05;;;11.15;;
30515;SDS011;17297;54.022;10.760;2023-04-10T06:19:04;14.15;;;10.75;;
30515;SDS011;17297;54.022;10.760;2023-04-10T06:21:29;18.08;;;10.10;;
30515;SDS011;17297;54.022;10.760;2023-04-10T06:23:54;17.15;;;11.10;;
30515;SDS011;17297;54.022;10.760;2023-04-10T06:26:20;16.27;;;11.38;;
30515;SDS011;17297;54.022;10.760;2023-04-10T06:28:45;15.40;;;10.45;;
30515;SDS011;17297;54.022;10.760;2023-04-10T06:31:13;14.23;;;11.18;;
30515;SDS011;17297;54.022;10.760;2023-04-10T06:33:38;16.77;;;10.48;;
30515;SDS011;17297;54.022;10.760;2023-04-10T06:36:06;14.88;;;10.25;;
30515;SDS011;17297;54.022;10.760;2023-04-10T06:38:37;14.57;;;10.43;;
30515;SDS011;17297;54.022;10.760;2023-04-10T06:41:06;15.30;;;9.52;;
30515;SDS011;17297;54.022;10.760;2023-04-10T06:43:32;14.60;;;10.07;;
30515;SDS011;17297;54.022;10.760;2023-04-10T06:45:58;13.38;;;10.18;;
30515;SDS011;17297;54.022;10.760;2023-04-10T06:48:24;18.58;;;11.23;;
30515;SDS011;17297;54.022;10.760;2023-04-10T06:50:50;18.60;;;10.18;;
30515;SDS011;17297;54.022;10.760;2023-04-10T06:53:15;14.35;;;9.63;;
30515;SDS011;17297;54.022;10.760;2023-04-10T06:55:40;18.02;;;10.43;;
30515;SDS011;17297;54.022;10.760;2023-04-10T06:58:06;15.75;;;10.63;;
30515;SDS011;17297;54.022;10.760;2023-04-10T07:00:31;15.27;;;10.93;;
30515;SDS011;17297;54.022;10.760;2023-04-10T07:02:56;17.27;;;10.30;;
30515;SDS011;17297;54.022;10.760;2023-04-10T07:05:22;18.50;;;10.50;;
30515;SDS011;17297;54.022;10.760;2023-04-10T07:07:47;15.57;;;11.10;;
30515;SDS011;17297;54.022;10.760;2023-04-10T07:10:14;15.25;;;11.00;;
30515;SDS011;17297;54.022;10.760;2023-04-10T07:12:40;15.63;;;9.85;;
30515;SDS011;17297;54.022;10.760;2023-04-10T07:15:06;15.40;;;9.88;;
30515;SDS011;17297;54.022;10.760;2023-04-10T07:17:36;17.30;;;11.05;;
30515;SDS011;17297;54.022;10.760;2023-04-10T07:20:01;13.40;;;9.05;;
30515;SDS011;17297;54.022;10.760;2023-04-10T07:22:30;15.57;;;11.23;;
30515;SDS011;17297;54.022;10.760;2023-04-10T07:24:56;14.65;;;10.27;;
30515;SDS011;17297;54.022;10.760;2023-04-10T07:27:25;15.50;;;11.27;;
30515;SDS011;17297;54.022;10.760;2023-04-10T07:29:53;14.77;;;9.75;;
30515;SDS011;17297;54.022;10.760;2023-04-10T07:32:19;16.17;;;9.90;;
30515;SDS011;17297;54.022;10.760;2023-04-10T07:34:46;15.02;;;11.10;;
30515;SDS011;17297;54.022;10.760;2023-04-10T07:37:11;13.88;;;10.27;;
30515;SDS011;17297;54.022;10.760;2023-04-10T07:39:40;15.57;;;10.52;;
30515;SDS011;17297;54.022;10.760;2023-04-10T07:42:05;17.35;;;10.77;;
30515;SDS011;17297;54.022;10.760;2023-04-10T07:44:30;15.07;;;9.77;;
30515;SDS011;17297;54.022;10.760;2023-04-10T07:46:56;15.60;;;9.95;;
30515;SDS011;17297;54.022;10.760;2023-04-10T07:49:22;14.23;;;9.93;;
30515;SDS011;17297;54.022;10.760;2023-04-10T07:51:48;16.08;;;11.75;;
30515;SDS011;17297;54.022;10.760;2023-04-10T07:54:13;15.00;;;10.40;;
30515;SDS011;17297;54.022;10.760;2023-04-10T07:56:39;16.08;;;10.77;;
30515;SDS011;17297;54.022;10.760;2023-04-10T07:59:05;15.98;;;10.82;;
30515;SDS011;17297;54.022;10.760;2023-04-10T08:01:30;16.25;;;10.27;;
30515;SDS011;17297;54.022;10.760;2023-04-10T08:04:01;16.92;;;11.30;;
30515;SDS011;17297;54.022;10.760;2023-04-10T08:06:29;17.90;;;11.35;;
30515;SDS011;17297;54.022;10.760;2023-04-10T08:08:56;17.23;;;12.25;;
30515;SDS011;17297;54.022;10.760;2023-04-10T08:11:22;16.65;;;10.73;;
30515;SDS011;17297;54.022;10.760;2023-04-10T08:13:50;15.90;;;11.65;;
30515;SDS011;17297;54.022;10.760;2023-04-10T08:16:17;15.80;;;11.30;;
30515;SDS011;17297;54.022;10.760;2023-04-10T08:18:44;16.67;;;11.02;;
30515;SDS011;17297;54.022;10.760;2023-04-10T08:21:10;17.02;;;10.25;;
30515;SDS011;17297;54.022;10.760;2023-04-10T08:23:35;16.25;;;10.52;;
30515;SDS011;17297;54.022;10.760;2023-04-10T08:26:00;14.98;;;10.13;;
30515;SDS011;17297;54.022;10.760;2023-04-10T08:28:26;17.27;;;12.18;;
30515;SDS011;17297;54.022;10.760;2023-04-10T08:30:54;14.25;;;11.25;;
30515;SDS011;17297;54.022;10.760;2023-04-10T08:33:19;16.75;;;12.20;;
30515;SDS011;17297;54.022;10.760;2023-04-10T08:35:48;16.92;;;11.60;;
30515;SDS011;17297;54.022;10.760;2023-04-10T08:38:13;16.88;;;12.38;;
30515;SDS011;17297;54.022;10.760;2023-04-10T08:40:38;16.52;;;11.55;;
30515;SDS011;17297;54.022;10.760;2023-04-10T08:43:04;15.98;;;11.70;;
30515;SDS011;17297;54.022;10.760;2023-04-10T08:45:30;14.43;;;9.88;;
30515;SDS011;17297;54.022;10.760;2023-04-10T08:47:56;12.57;;;9.43;;
30515;SDS011;17297;54.022;10.760;2023-04-10T08:50:26;13.73;;;9.25;;
30515;SDS011;17297;54.022;10.760;2023-04-10T08:52:55;16.05;;;10.82;;
30515;SDS011;17297;54.022;10.760;2023-04-10T08:55:24;15.05;;;9.88;;
30515;SDS011;17297;54.022;10.760;2023-04-10T08:57:50;16.50;;;11.32;;
30515;SDS011;17297;54.022;10.760;2023-04-10T09:00:16;12.50;;;10.35;;
30515;SDS011;17297;54.022;10.760;2023-04-10T09:02:42;13.73;;;9.00;;
30515;SDS011;17297;54.022;10.760;2023-04-10T09:05:09;11.40;;;9.43;;
30515;SDS011;17297;54.022;10.760;2023-04-10T09:07:36;19.10;;;10.55;;
30515;SDS011;17297;54.022;10.760;2023-04-10T09:10:01;11.52;;;9.05;;
30515;SDS011;17297;54.022;10.760;2023-04-10T09:12:27;14.40;;;9.95;;
30515;SDS011;17297;54.022;10.760;2023-04-10T09:14:52;12.57;;;7.93;;
30515;SDS011;17297;54.022;10.760;2023-04-10T09:17:23;13.15;;;8.90;;
30515;SDS011;17297;54.022;10.760;2023-04-10T09:19:52;14.13;;;10.48;;
30515;SDS011;17297;54.022;10.760;2023-04-10T09:22:31;12.77;;;9.65;;
30515;SDS011;17297;54.022;10.760;2023-04-10T09:24:59;12.73;;;8.73;;
30515;SDS011;17297;54.022;10.760;2023-04-10T09:27:32;14.02;;;10.02;;
30515;SDS011;17297;54.022;10.760;2023-04-10T09:30:01;12.25;;;8.93;;
30515;SDS011;17297;54.022;10.760;2023-04-10T09:32:49;12.13;;;8.82;;
30515;SDS011;17297;54.022;10.760;2023-04-10T09:37:40;8.55;;;7.10;;
30515;SDS011;17297;54.022;10.760;2023-04-10T09:40:28;13.65;;;10.18;;
30515;SDS011;17297;54.022;10.760;2023-04-10T09:42:53;12.15;;;8.73;;
30515;SDS011;17297;54.022;10.760;2023-04-10T09:45:20;9.15;;;7.63;;
30515;SDS011;17297;54.022;10.760;2023-04-10T09:48:05;10.18;;;8.90;;
30515;SDS011;17297;54.022;10.760;2023-04-10T09:50:38;10.60;;;8.55;;
30515;SDS011;17297;54.022;10.760;2023-04-10T09:53:05;11.32;;;8.70;;
30515;SDS011;17297;54.022;10.760;2023-04-10T09:55:32;11.45;;;8.73;;
30515;SDS011;17297;54.022;10.760;2023-04-10T09:57:59;11.68;;;7.35;;
30515;SDS011;17297;54.022;10.760;2023-04-10T10:00:25;10.23;;;8.35;;
30515;SDS011;17297;54.022;10.760;2023-04-10T10:02:51;10.02;;;7.60;;
30515;SDS011;17297;54.022;10.760;2023-04-10T10:05:19;10.30;;;8.75;;
30515;SDS011;17297;54.022;10.760;2023-04-10T10:07:46;9.43;;;8.10;;
30515;SDS011;17297;54.022;10.760;2023-04-10T10:10:12;16.27;;;9.30;;
30515;SDS011;17297;54.022;10.760;2023-04-10T10:12:43;9.75;;;7.97;;
30515;SDS011;17297;54.022;10.760;2023-04-10T10:15:19;10.68;;;7.57;;
30515;SDS011;17297;54.022;10.760;2023-04-10T10:20:45;9.80;;;8.38;;
30515;SDS011;17297;54.022;10.760;2023-04-10T10:23:11;10.45;;;8.40;;
30515;SDS011;17297;54.022;10.760;2023-04-10T10:25:39;7.97;;;6.45;;
30515;SDS011;17297;54.022;10.760;2023-04-10T10:28:06;11.43;;;7.53;;
30515;SDS011;17297;54.022;10.760;2023-04-10T10:30:31;9.15;;;7.65;;
30515;SDS011;17297;54.022;10.760;2023-04-10T10:32:58;9.93;;;7.75;;
30515;SDS011;17297;54.022;10.760;2023-04-10T10:35:29;11.25;;;7.75;;
30515;SDS011;17297;54.022;10.760;2023-04-10T10:37:57;10.02;;;8.38;;
30515;SDS011;17297;54.022;10.760;2023-04-10T10:40:31;8.52;;;6.60;;
30515;SDS011;17297;54.022;10.760;2023-04-10T10:45:59;10.18;;;7.55;;
30515;SDS011;17297;54.022;10.760;2023-04-10T10:48:30;10.15;;;7.70;;
30515;SDS011;17297;54.022;10.760;2023-04-10T10:50:59;8.85;;;7.32;;
30515;SDS011;17297;54.022;10.760;2023-04-10T10:53:32;8.50;;;6.47;;
30515;SDS011;17297;54.022;10.760;2023-04-10T10:56:06;9.63;;;7.30;;
30515;SDS011;17297;54.022;10.760;2023-04-10T10:58:48;9.55;;;5.82;;
30515;SDS011;17297;54.022;10.760;2023-04-10T11:01:14;7.00;;;5.40;;
30515;SDS011;17297;54.022;10.760;2023-04-10T11:03:40;5.95;;;5.22;;
30515;SDS011;17297;54.022;10.760;2023-04-10T11:06:09;8.65;;;5.65;;
30515;SDS011;17297;54.022;10.760;2023-04-10T11:08:38;8.60;;;6.20;;
30515;SDS011;17297;54.022;10.760;2023-04-10T11:14:10;5.75;;;5.13;;
30515;SDS011;17297;54.022;10.760;2023-04-10T11:16:40;10.38;;;4.63;;
30515;SDS011;17297;54.022;10.760;2023-04-10T11:19:08;5.40;;;4.35;;
30515;SDS011;17297;54.022;10.760;2023-04-10T11:24:49;3.33;;;3.00;;
30515;SDS011;17297;54.022;10.760;2023-04-10T11:33:05;6.22;;;4.95;;
30515;SDS011;17297;54.022;10.760;2023-04-10T11:35:30;5.45;;;4.95;;
30515;SDS011;17297;54.022;10.760;2023-04-10T11:38:09;6.88;;;4.90;;
30515;SDS011;17297;54.022;10.760;2023-04-10T11:40:51;5.30;;;4.53;;
30515;SDS011;17297;54.022;10.760;2023-04-10T11:43:18;5.82;;;4.72;;
30515;SDS011;17297;54.022;10.760;2023-04-10T11:45:43;9.43;;;4.40;;
30515;SDS011;17297;54.022;10.760;2023-04-10T11:48:09;4.63;;;3.70;;
30515;SDS011;17297;54.022;10.760;2023-04-10T11:50:34;6.22;;;4.40;;
30515;SDS011;17297;54.022;10.760;2023-04-10T11:53:00;4.47;;;3.70;;
30515;SDS011;17297;54.022;10.760;2023-04-10T11:55:38;4.28;;;3.63;;
30515;SDS011;17297;54.022;10.760;2023-04-10T11:58:03;4.10;;;3.70;;
30515;SDS011;17297;54.022;10.760;2023-04-10T12:00:28;5.85;;;4.05;;
30515;SDS011;17297;54.022;10.760;2023-04-10T12:02:54;10.77;;;5.38;;
30515;SDS011;17297;54.022;10.760;2023-04-10T12:05:19;4.22;;;3.83;;
30515;SDS011;17297;54.022;10.760;2023-04-10T12:07:45;6.07;;;4.95;;
30515;SDS011;17297;54.022;10.760;2023-04-10T12:10:10;4.50;;;4.10;;
30515;SDS011;17297;54.022;10.760;2023-04-10T12:12:36;4.80;;;4.15;;
30515;SDS011;17297;54.022;10.760;2023-04-10T12:15:02;5.43;;;4.63;;
30515;SDS011;17297;54.022;10.760;2023-04-10T12:17:28;6.88;;;5.68;;
30515;SDS011;17297;54.022;10.760;2023-04-10T12:19:54;4.25;;;3.72;;
30515;SDS011;17297;54.022;10.760;2023-04-10T12:22:19;5.75;;;4.05;;
30515;SDS011;17297;54.022;10.760;2023-04-10T12:24:46;5.70;;;4.45;;
30515;SDS011;17297;54.022;10.760;2023-04-10T12:27:18;4.68;;;4.13;;
30515;SDS011;17297;54.022;10.760;2023-04-10T12:29:45;5.80;;;4.75;;
30515;SDS011;17297;54.022;10.760;2023-04-10T12:32:12;5.25;;;4.55;;
30515;SDS011;17297;54.022;10.760;2023-04-10T12:34:38;6.45;;;5.15;;
30515;SDS011;17297;54.022;10.760;2023-04-10T12:37:04;7.82;;;5.47;;
30515;SDS011;17297;54.022;10.760;2023-04-10T12:39:30;5.68;;;4.97;;
30515;SDS011;17297;54.022;10.760;2023-04-10T12:42:12;7.65;;;6.07;;
30515;SDS011;17297;54.022;10.760;2023-04-10T12:44:48;6.03;;;5.38;;
30515;SDS011;17297;54.022;10.760;2023-04-10T12:47:15;8.00;;;5.60;;
30515;SDS011;17297;54.022;10.760;2023-04-10T12:49:40;8.60;;;6.65;;
30515;SDS011;17297;54.022;10.760;2023-04-10T12:52:06;8.48;;;6.65;;
30515;SDS011;17297;54.022;10.760;2023-04-10T12:54:35;7.25;;;5.55;;
30515;SDS011;17297;54.022;10.760;2023-04-10T12:57:01;11.35;;;6.30;;
30515;SDS011;17297;54.022;10.760;2023-04-10T12:59:31;5.55;;;4.93;;
30515;SDS011;17297;54.022;10.760;2023-04-10T13:01:57;7.75;;;5.85;;
30515;SDS011;17297;54.022;10.760;2023-04-10T13:04:23;11.07;;;5.57;;
30515;SDS011;17297;54.022;10.760;2023-04-10T13:06:48;6.97;;;5.60;;
30515;SDS011;17297;54.022;10.760;2023-04-10T13:09:16;6.22;;;4.45;;
30515;SDS011;17297;54.022;10.760;2023-04-10T13:11:42;6.13;;;5.53;;
30515;SDS011;17297;54.022;10.760;2023-04-10T13:14:07;6.35;;;5.05;;
30515;SDS011;17297;54.022;10.760;2023-04-10T13:16:33;5.82;;;4.07;;
30515;SDS011;17297;54.022;10.760;2023-04-10T13:18:59;5.07;;;4.57;;
30515;SDS011;17297;54.022;10.760;2023-04-10T13:21:26;4.10;;;3.47;;
30515;SDS011;17297;54.022;10.760;2023-04-10T13:23:53;8.70;;;4.38;;
30515;SDS011;17297;54.022;10.760;2023-04-10T13:26:18;5.32;;;4.65;;
30515;SDS011;17297;54.022;10.760;2023-04-10T13:28:45;7.00;;;5.93;;
30515;SDS011;17297;54.022;10.760;2023-04-10T13:31:10;6.50;;;5.78;;
30515;SDS011;17297;54.022;10.760;2023-04-10T13:33:36;8.45;;;5.40;;
30515;SDS011;17297;54.022;10.760;2023-04-10T13:36:01;6.70;;;4.57;;
30515;SDS011;17297;54.022;10.760;2023-04-10T13:38:26;7.22;;;4.97;;
30515;SDS011;17297;54.022;10.760;2023-04-10T13:40:52;6.20;;;5.38;;
30515;SDS011;17297;54.022;10.760;2023-04-10T13:43:17;6.97;;;6.13;;
30515;SDS011;17297;54.022;10.760;2023-04-10T13:45:43;6.40;;;5.15;;
30515;SDS011;17297;54.022;10.760;2023-04-10T13:48:08;6.03;;;4.90;;
30515;SDS011;17297;54.022;10.760;2023-04-10T13:50:33;6.82;;;5.15;;
30515;SDS011;17297;54.022;10.760;2023-04-10T13:52:59;6.20;;;5.40;;
30515;SDS011;17297;54.022;10.760;2023-04-10T13:55:24;5.57;;;4.57;;
30515;SDS011;17297;54.022;10.760;2023-04-10T13:57:49;5.35;;;4.47;;
30515;SDS011;17297;54.022;10.760;2023-04-10T14:00:15;6.32;;;4.30;;
30515;SDS011;17297;54.022;10.760;2023-04-10T14:02:41;5.22;;;4.28;;
30515;SDS011;17297;54.022;10.760;2023-04-10T14:05:07;4.55;;;3.85;;
30515;SDS011;17297;54.022;10.760;2023-04-10T14:07:32;4.95;;;3.85;;
30515;SDS011;17297;54.022;10.760;2023-04-10T14:09:58;6.57;;;4.18;;
30515;SDS011;17297;54.022;10.760;2023-04-10T14:12:24;6.40;;;4.32;;
30515;SDS011;17297;54.022;10.760;2023-04-10T14:14:50;5.13;;;4.00;;
30515;SDS011;17297;54.022;10.760;2023-04-10T14:17:15;7.78;;;5.18;;
30515;SDS011;17297;54.022;10.760;2023-04-10T14:19:41;5.30;;;4.30;;
30515;SDS011;17297;54.022;10.760;2023-04-10T14:22:06;6.22;;;4.07;;
30515;SDS011;17297;54.022;10.760;2023-04-10T14:24:32;4.45;;;3.75;;
30515;SDS011;17297;54.022;10.760;2023-04-10T14:26:57;5.90;;;4.68;;
30515;SDS011;17297;54.022;10.760;2023-04-10T14:29:25;5.88;;;4.40;;
30515;SDS011;17297;54.022;10.760;2023-04-10T14:31:51;4.15;;;3.75;;
30515;SDS011;17297;54.022;10.760;2023-04-10T14:34:16;6.22;;;3.92;;
30515;SDS011;17297;54.022;10.760;2023-04-10T14:36:42;3.75;;;3.40;;
30515;SDS011;17297;54.022;10.760;2023-04-10T14:39:07;5.15;;;3.85;;
30515;SDS011;17297;54.022;10.760;2023-04-10T14:41:33;3.95;;;3.35;;
30515;SDS011;17297;54.022;10.760;2023-04-10T14:43:58;4.30;;;3.90;;
30515;SDS011;17297;54.022;10.760;2023-04-10T14:46:23;11.32;;;4.70;;
30515;SDS011;17297;54.022;10.760;2023-04-10T14:48:49;16.67;;;6.43;;
30515;SDS011;17297;54.022;10.760;2023-04-10T14:51:15;4.47;;;3.75;;
30515;SDS011;17297;54.022;10.760;2023-04-10T14:53:40;5.30;;;4.03;;
30515;SDS011;17297;54.022;10.760;2023-04-10T14:56:10;5.93;;;4.90;;
30515;SDS011;17297;54.022;10.760;2023-04-10T14:58:36;4.38;;;3.83;;
30515;SDS011;17297;54.022;10.760;2023-04-10T15:01:01;9.85;;;3.88;;
30515;SDS011;17297;54.022;10.760;2023-04-10T15:03:26;4.82;;;4.00;;
30515;SDS011;17297;54.022;10.760;2023-04-10T15:05:58;4.72;;;3.60;;